Pagrindinis puslapis
METAR-TAF:

METAR-TAF

Oro uostai :

Madridas, Ispanija

platuma: 40-27N, ilguma: 003-33W, Aukštis: 609 m

Dabartinis oras

Ataskaita buvo paskelbta 13 minutes, ne 05:00 UTC
Vėjas 5 kt iš Šiaurės
Temperatūra 17°C
Drėgmė 82%
Slėgis 1017 hPa
Matomumas 10 km arba daugiau
nėra debesų žemiau 1500 m ir nėra kamuolinių lietaus debesų

METAR: LEMD 180500Z 35005KT CAVOK 17/14 Q1017 NOSIG

Laikas: 07:13 (05:13 UTC)

Prognozė

Ataskaita buvo paskelbta 6 valandos ir 13 minutes, ne 23:00 UTC
Prognozė galioja nuo 18 metu 00 UTC su 19 metu 06 UTC
Vėjas 4 kt nuo kintamojo kryptimis
Matomumas 10 km arba daugiau
Mažai debesys ne aukštis 6000 ft

TAF: LEMD 172300Z 1800/1906 VRB04KT 9999 FEW060 TX29/1815Z TN13/1806Z

Orai ataskaitas ir orų prognozės (METAR, TAF).

turimą stotys yra geltonos ir raudonos taškus žemėlapyje.

Perkelti pele per norėdami pamatyti stoties vardą.

Tada spustelėkite, norėdami matyti oro stebėjimo ir prognozės.

Norėdami pakeisti žemėlapį: spustelėkite ant žalios mygtukų su juodo kryžiaus žemyn,; žalią mygtuką su brūkšneliu, jei norite nutolinti; arba žalių rodyklių gretimoms žemėlapius.


METAR-TAF: